• Join FlightAware (Why Join?)
  • Login
  • US Flag 
 
01:01AM EST


 

Airport Tracker/Info


-or-


 

Live Flight TrackerFlight Track Log ✈ N490QS ✈ 30-Jun-2013 ✈ KIAD - KMIA

Flight Track Log - Related Links

Times and Time Zones

All times are in EDT time to prevent confusion due to time zone crossing. See the N490QS flight status page for this flight to view local times or setup timezone preferences in your user account.

Time Position Orientation Groundspeed Altitude Reporting Facility
EDT Latitude Longitude Course Direction KTS MPH feet Rate Location/Type
01:29PM 38.8833 -77.4333 180° South 208 239 2,700  Level Potomac TRACON
01:30PM 38.8167 -77.4333 180° South 239 275 5,100 3,060 Climbing Potomac TRACON
01:31PM 38.7500 -77.4833 210° Southwest 270 311 8,900 3,420 Climbing Potomac TRACON
01:32PM 38.7000 -77.5500 226° Southwest 274 315 12,000 2,880 Climbing Potomac TRACON
01:33PM 38.6211 -77.6164 213° Southwest 278 320 15,800 2,640 Climbing Washington Center
01:34PM 38.5597 -77.6811 220° Southwest 278 320 18,300 1,740 Climbing Washington Center
01:35PM 38.4833 -77.7453 213° Southwest 301 346 19,300 1,200 Climbing Washington Center
01:36PM 38.4006 -77.8225 216° Southwest 341 392 20,800 1,740 Climbing Washington Center
01:37PM 38.3156 -77.9072 218° Southwest 375 432 22,900 1,980 Climbing Washington Center
01:38PM 38.2306 -77.9867 216° Southwest 387 445 24,700 1,800 Climbing Washington Center
01:39PM 38.1436 -78.0683 216° Southwest 392 451 26,500 1,620 Climbing Washington Center
01:40PM 38.0564 -78.1497 218° Southwest 392 451 28,000 1,560 Climbing Washington Center
01:41PM 38.0308 -78.1526 218° Southwest  Level FlightAware Approximate
01:41PM 37.9647 -78.2414 218° Southwest 387 445 29,700  Level Washington Center
01:42PM 37.8753 -78.3225 216° Southwest 387 445 31,100 1,500 Climbing Washington Center
01:43PM 37.7986 -78.3933 216° Southwest 387 445 32,700 900 Climbing Washington Center
01:45PM 37.6895 -78.4810 213° Southwest  Level FlightAware Approximate
01:45PM 37.6236 -78.5547 213° Southwest 392 451 33,800  Level Washington Center
01:46PM 37.5383 -78.6325 216° Southwest 392 451 35,000 1,320 Climbing Washington Center
01:47PM 37.4464 -78.7178 216° Southwest 387 445 36,500 1,500 Climbing Washington Center
01:48PM 37.3608 -78.7928 215° Southwest 387 445 38,000 1,260 Climbing Washington Center
01:49PM 37.2775 -78.8728 217° Southwest 387 445 39,100 1,080 Climbing Washington Center
01:50PM 37.1897 -78.9497 215° Southwest 387 445 40,300 1,200 Climbing Washington Center
01:51PM 37.1061 -79.0269 216° Southwest 387 445 41,500 1,140 Climbing Washington Center
01:52PM 37.0311 -79.0939 215° Southwest 387 445 42,600 720 Climbing Washington Center
01:53PM 36.9478 -79.1681 215° Southwest 387 445 43,000 180 Climbing Washington Center
01:54PM 36.8597 -79.2469 216° Southwest 392 451 43,000  Level Washington Center
01:55PM 36.7717 -79.3258 216° Southwest 392 451 43,000  Level Washington Center
01:56PM 36.6731 -79.4142 216° Southwest 392 451 43,000  Level Washington Center
01:59PM 36.4781 -79.5900 216° Southwest 393 452 43,000  Level Atlanta Center
02:00PM 36.3892 -79.6672 215° Southwest 393 452 43,000  Level Atlanta Center
02:01PM 36.2942 -79.7522 216° Southwest 393 452 43,000  Level Atlanta Center
02:02PM 36.2053 -79.8317 216° Southwest 393 452 43,000  Level Atlanta Center
02:03PM 36.1161 -79.9108 216° Southwest 393 452 43,000  Level Atlanta Center
02:04PM 36.0267 -79.9822 213° Southwest 393 452 43,000  Level Atlanta Center
02:05PM 35.9364 -80.0303 203° Southwest 393 452 43,000  Level Atlanta Center
02:06PM 35.8358 -80.0814 202° Southwest 393 452 43,000  Level Atlanta Center
02:07PM 35.7353 -80.1269 200° South 393 452 43,000  Level Atlanta Center
02:08PM 35.6264 -80.1833 203° Southwest 387 445 43,000  Level Atlanta Center
02:09PM 35.5258 -80.2342 202° Southwest 387 445 43,000  Level Atlanta Center
02:10PM 35.4272 -80.2869 204° Southwest 387 445 43,000  Level Atlanta Center
02:11PM 35.3244 -80.3350 201° Southwest 394 453 43,000  Level Atlanta Center
02:12PM 35.2278 -80.3825 202° Southwest 386 444 43,000  Level Atlanta Center
02:13PM 35.1375 -80.4322 204° Southwest 391 450 43,000  Level Atlanta Center
02:16PM 34.8106 -80.5917 202° Southwest 403 464 43,000  Level Jacksonville Center
02:17PM 34.7114 -80.6447 204° Southwest 395 455 43,000  Level Jacksonville Center
02:18PM 34.6039 -80.6931 200° South 402 463 43,000  Level Jacksonville Center
02:19PM 34.5025 -80.7433 202° Southwest 410 472 43,000  Level Jacksonville Center
02:20PM 34.3886 -80.8017 203° Southwest 410 472 43,000  Level Jacksonville Center
02:21PM 34.2853 -80.8519 202° Southwest 402 463 43,000  Level Jacksonville Center
02:22PM 34.2003 -80.8914 201° Southwest 395 455 43,000  Level Jacksonville Center
02:23PM 34.0989 -80.9414 202° Southwest 390 449 43,000  Level Jacksonville Center
02:24PM 33.9953 -80.9914 202° Southwest 390 449 43,000  Level Jacksonville Center
02:25PM 33.8811 -81.0389 199° South 390 449 43,000  Level Jacksonville Center
02:26PM 33.7731 -81.0611 190° South 395 455 43,000  Level Jacksonville Center
02:27PM 33.6753 -81.0756 187° South 395 455 43,000  Level Jacksonville Center
02:28PM 33.5647 -81.0831 183° South 400 460 43,000  Level Jacksonville Center
02:29PM 33.4542 -81.0928 184° South 400 460 43,000  Level Jacksonville Center
02:30PM 33.3417 -81.1025 184° South 406 467 43,000  Level Jacksonville Center
02:31PM 33.2311 -81.1119 184° South 406 467 43,000  Level Jacksonville Center
02:32PM 33.1228 -81.1217 184° South 406 467 43,000  Level Jacksonville Center
02:33PM 33.0122 -81.1314 184° South 406 467 43,000  Level Jacksonville Center
02:34PM 32.9039 -81.1383 183° South 401 461 43,000  Level Jacksonville Center
02:35PM 32.7953 -81.1478 184° South 401 461 43,000 420 Level Jacksonville Center
02:36PM 32.6850 -81.1575 184° South 386 444 43,900 660 Climbing Jacksonville Center
02:37PM 32.5869 -81.1667 185° South 378 435 44,400 540 Climbing Jacksonville Center
02:38PM 32.4703 -81.1764 184° South 384 442 45,000 300 Climbing Jacksonville Center
02:39PM 32.3681 -81.1831 183° South 399 459 45,000  Level Jacksonville Center
02:40PM 32.2469 -81.1928 184° South 403 464 45,000  Level Jacksonville Center
02:41PM 32.1364 -81.1997 183° South 403 464 45,000  Level Jacksonville Center
02:42PM 32.0258 -81.1969 179° South 403 464 45,000  Level Jacksonville Center
02:43PM 31.9208 -81.1572 162° South 397 457 45,000  Level Jacksonville Center
02:44PM 31.8178 -81.1053 157° South 407 468 45,000  Level Jacksonville Center
02:45PM 31.7208 -81.0461 153° Southeast 400 460 45,000  Level Jacksonville Center
02:46PM 31.6283 -80.9919 153° Southeast 400 460 45,000  Level Jacksonville Center
02:47PM 31.5208 -80.9283 153° Southeast 400 460 45,000  Level Jacksonville Center
02:48PM 31.4281 -80.8767 155° Southeast 400 460 45,000  Level Jacksonville Center
02:49PM 31.3228 -80.8231 156° South 400 460 45,000  Level Jacksonville Center
02:50PM 31.2197 -80.7767 159° South 405 466 45,000  Level Jacksonville Center
02:51PM 31.1125 -80.7331 161° South 405 466 45,000  Level Jacksonville Center
02:52PM 31.0033 -80.6942 163° South 405 466 45,000  Level Jacksonville Center
02:53PM 30.8942 -80.6533 162° South 412 474 45,000  Level Jacksonville Center
02:54PM 30.7847 -80.6122 162° South 412 474 45,000  Level Jacksonville Center
02:55PM 30.6736 -80.5836 168° South 407 468 45,000  Level Jacksonville Center
02:56PM 30.5667 -80.5572 168° South 397 457 45,000  Level Jacksonville Center
02:58PM 30.3905 -80.5107 167° South  Level FlightAware Approximate
02:58PM 30.3422 -80.5025 167° South 407 468 45,000  Level Jacksonville Center
02:59PM 30.2331 -80.4739 167° South 413 475 45,000  Level Jacksonville Center
03:01PM 30.0131 -80.4011 164° South 432 497 45,000  Level Miami Center
03:03PM 29.7961 -80.3272 164° South 409 471 45,000  Level Miami Center
03:04PM 29.6867 -80.2853 162° South 409 471 45,000  Level Miami Center
03:06PM 29.4675 -80.2094 163° South 415 478 45,000  Level Miami Center
03:07PM 29.3578 -80.1703 163° South 415 478 45,000  Level Miami Center
03:08PM 29.2461 -80.1314 163° South 415 478 45,000  Level Miami Center
03:09PM 29.1383 -80.0947 163° South 407 468 45,000 -120 Level Miami Center
03:10PM 29.0267 -80.0536 162° South 413 475 44,800 -720 Descending Miami Center
03:11PM 28.9169 -80.0147 163° South 418 481 43,600 -1,200 Descending Miami Center
03:12PM 28.8178 -79.9764 161° South 412 474 42,400 -1,140 Descending Miami Center
03:13PM 28.7403 -79.8867 135° Southeast 396 456 41,400 -1,200 Descending Miami Center
03:14PM 28.6739 -79.7667 122° Southeast 403 464 40,100 -1,620 Descending Miami Center
03:15PM 28.6136 -79.6586 122° Southeast 398 458 38,200 -1,980 Descending Miami Center
03:16PM 28.5511 -79.5458 122° Southeast 409 471 36,200 -1,260 Descending Miami Center
03:17PM 28.4686 -79.4825 146° Southeast 397 457 35,700 -840 Descending Miami Center
03:18PM 28.3419 -79.4536 169° South 406 467 34,600 -900 Descending Miami Center
03:19PM 28.2272 -79.4464 177° South 413 475 34,000 -300 Descending Miami Center
03:20PM 28.1061 -79.4411 178° South 424 488 34,000 -300 Level Miami Center
03:21PM 27.9978 -79.4364 178° South 429 494 33,400 -960 Descending Miami Center
03:22PM 27.8808 -79.4336 179° South 429 494 32,100 -1,440 Descending Miami Center
03:23PM 27.7494 -79.4261 177° South 435 501 30,600 -1,440 Descending Miami Center
03:24PM 27.6264 -79.4211 178° South 440 506 29,300 -1,380 Descending Miami Center
03:25PM 27.5011 -79.4158 178° South 445 512 27,900 -1,440 Descending Miami Center
03:26PM 27.3844 -79.4086 177° South 457 526 26,500 -1,440 Descending Miami Center
03:27PM 27.2592 -79.4036 178° South 462 532 25,100 -1,260 Descending Miami Center
03:28PM 27.1192 -79.4122 183° South 454 522 24,000 -840 Descending Miami Center
03:29PM 26.9997 -79.4375 191° South 441 507 23,500 -1,080 Descending Miami Center
03:30PM 26.8883 -79.4747 197° South 427 491 21,900 -1,500 Descending Miami Center
03:31PM 26.7911 -79.5328 208° Southwest 407 468 20,500 -1,380 Descending Miami Center
03:32PM 26.7003 -79.5889 209° Southwest 412 474 19,200 -1,440 Descending Miami Center
03:33PM 26.5967 -79.6517 208° Southwest 392 451 17,800 -1,380 Descending Miami Center
03:34PM 26.5058 -79.7075 209° Southwest 388 447 16,500 -900 Descending Miami Center
03:35PM 26.4375 -79.7825 225° Southwest 357 411 16,000 -300 Descending Miami Center
03:36PM 26.3814 -79.8714 235° Southwest 357 411 15,900 -780 Descending Miami Center
03:37PM 26.2989 -79.9250 210° Southwest 344 396 14,500 -1,440 Descending Miami Center
03:38PM 26.2228 -79.9647 205° Southwest 339 390 13,100 -1,920 Descending Miami Center
03:39PM 26.1425 -80.0067 205° Southwest 333 383 10,700 -1,800 Descending Miami Center
03:40PM 26.0667 -80.0439 204° Southwest 314 361 9,600 -1,020 Descending Miami Center
03:41PM 26.0011 -80.0769 204° Southwest 287 330 8,700 -840 Descending Miami Center
03:42PM 25.9481 -80.1169 214° Southwest 256 295 8,000 -300 Descending Miami Center
03:43PM 25.9017 -80.2219 244° Southwest 230 265 8,000  Level Miami Center
03:44PM 25.8856 -80.2839 254° West 235 270 8,000 -600 Level Miami Center
03:45PM 25.8775 -80.3644 264° West 231 266 6,800 -1,200 Descending Miami Center
03:46PM 25.8717 -80.4381 265° West 227 261 5,500 -1,320 Descending Miami Center
03:47PM 25.8536 -80.4908 249° West 202 232 4,300 -1,320 Descending Miami Center
03:48PM 25.8189 -80.4550 137° Southeast 186 214 3,000 -1,140 Descending Miami Center
03:49PM 25.8056 -80.4039 106° East 173 199 2,000 -960 Descending Miami Center
03:50PM 25.8003 -80.3575 97° East 149 171 1,100 -900 Descending Miami Center
03:51PM 25.8014 -80.3092 89° East 146 168 200 -900 Descending Miami Center
03:53PM 25.7954 -80.2901 103° East  Level Estimated
04:00PM 25.7954 -80.2901 103° East  Level Estimated